VKG1672 ESSA-LGPZ
Flight info
| Callsign | VKG1672 |
|---|---|
| Flight time | 2h 55m |
| Altitude | 34000 |
| Route | BABAP T316 NEPVA DCT ROGMI DCT PENOR DCT RATOR DCT BAXIS DCT BABKO DCT PARAK DCT VAL DCT AKIKA DCT LIMJA DCT PITAS UN732 KRK M127 MALED |
| Aircraft | A321/M-SDE3FGHIRWY/LB1 |
Departure
| Time | 2026-04-23 16:49 |
|---|---|
| Airport | Stockholm-Arlanda Airport (ESSA) |
Arrival
| Time | 2026-04-23 19:45 |
|---|---|
| Airport | Aktion National Airport (LGPZ) |
| Time | Latitude | Longitude | Altitude | Speed | Heading |
|---|---|---|---|---|---|
| 2026-04-23 16:18 | 59.65241 | 17.92989 | 112 ft | 0 kts | 71° |
| 2026-04-23 16:40 | 59.65235 | 17.92957 | 112 ft | 4 kts | 70° |
| 2026-04-23 16:40 | 59.65225 | 17.92909 | 110 ft | 4 kts | 52° |
| 2026-04-23 16:40 | 59.65206 | 17.92878 | 111 ft | 4 kts | 13° |
| 2026-04-23 16:41 | 59.65184 | 17.92878 | 110 ft | 1 kts | 343° |
| 2026-04-23 16:41 | 59.65180 | 17.92880 | 110 ft | 0 kts | 343° |
| 2026-04-23 16:44 | 59.65189 | 17.92875 | 110 ft | 5 kts | 343° |
| 2026-04-23 16:44 | 59.65235 | 17.92839 | 112 ft | 7 kts | 333° |
| 2026-04-23 16:45 | 59.65276 | 17.92795 | 112 ft | 6 kts | 332° |
| 2026-04-23 16:45 | 59.65314 | 17.92755 | 112 ft | 7 kts | 331° |
| 2026-04-23 16:45 | 59.65374 | 17.92693 | 112 ft | 12 kts | 342° |
| 2026-04-23 16:45 | 59.65442 | 17.92752 | 111 ft | 11 kts | 55° |
| 2026-04-23 16:46 | 59.65470 | 17.92876 | 112 ft | 9 kts | 69° |
| 2026-04-23 16:46 | 59.65492 | 17.93002 | 111 ft | 11 kts | 72° |
| 2026-04-23 16:46 | 59.65540 | 17.93133 | 111 ft | 14 kts | 21° |
| 2026-04-23 16:46 | 59.65619 | 17.93257 | 109 ft | 14 kts | 55° |
| 2026-04-23 16:47 | 59.65680 | 17.93405 | 109 ft | 13 kts | 47° |
| 2026-04-23 16:47 | 59.65734 | 17.93516 | 112 ft | 9 kts | 46° |
| 2026-04-23 16:47 | 59.65768 | 17.93584 | 114 ft | 5 kts | 46° |
| 2026-04-23 16:47 | 59.65779 | 17.93607 | 114 ft | 2 kts | 45° |
| 2026-04-23 16:48 | 59.65819 | 17.93652 | 117 ft | 6 kts | 11° |
| 2026-04-23 16:48 | 59.65847 | 17.93674 | 117 ft | 3 kts | 43° |
| 2026-04-23 16:48 | 59.65862 | 17.93765 | 115 ft | 15 kts | 78° |
| 2026-04-23 16:48 | 59.65938 | 17.94349 | 122 ft | 82 kts | 75° |
| 2026-04-23 16:49 | 59.66057 | 17.95279 | 120 ft | 126 kts | 76° |
| 2026-04-23 16:49 | 59.66390 | 17.98089 | 391 ft | 170 kts | 75° |
| 2026-04-23 16:49 | 59.66646 | 18.00345 | 1081 ft | 167 kts | 71° |
| 2026-04-23 16:49 | 59.66931 | 18.02552 | 1781 ft | 164 kts | 68° |
| 2026-04-23 16:50 | 59.67205 | 18.04713 | 2205 ft | 168 kts | 68° |
| 2026-04-23 16:50 | 59.67487 | 18.07095 | 2340 ft | 186 kts | 70° |
| 2026-04-23 16:50 | 59.67786 | 18.09690 | 2491 ft | 199 kts | 70° |
| 2026-04-23 16:50 | 59.68097 | 18.12450 | 2637 ft | 214 kts | 71° |
| 2026-04-23 16:51 | 59.68433 | 18.15458 | 2770 ft | 234 kts | 71° |
| 2026-04-23 16:51 | 59.68804 | 18.18790 | 3070 ft | 257 kts | 72° |
| 2026-04-23 16:51 | 59.69181 | 18.22245 | 3748 ft | 263 kts | 72° |
| 2026-04-23 16:51 | 59.69563 | 18.25810 | 3960 ft | 265 kts | 72° |
| 2026-04-23 16:52 | 59.69946 | 18.29394 | 4012 ft | 265 kts | 72° |
| 2026-04-23 16:52 | 59.70329 | 18.32956 | 4015 ft | 265 kts | 72° |
| 2026-04-23 16:52 | 59.70487 | 18.35376 | 4016 ft | 270 kts | 84° |
| 2026-04-23 16:52 | 59.70177 | 18.39081 | 4018 ft | 279 kts | 106° |
| 2026-04-23 16:53 | 59.69177 | 18.42427 | 4019 ft | 287 kts | 129° |
| 2026-04-23 16:53 | 59.67019 | 18.45456 | 4018 ft | 291 kts | 152° |
| 2026-04-23 16:53 | 59.65197 | 18.47319 | 4516 ft | 296 kts | 152° |
| 2026-04-23 16:53 | 59.63947 | 18.48598 | 4980 ft | 306 kts | 152° |
| 2026-04-23 16:54 | 59.61982 | 18.50608 | 5290 ft | 329 kts | 152° |
| 2026-04-23 16:54 | 59.59903 | 18.52740 | 5606 ft | 349 kts | 152° |
| 2026-04-23 16:54 | 59.57726 | 18.54971 | 6278 ft | 356 kts | 152° |
| 2026-04-23 16:54 | 59.55500 | 18.57254 | 7007 ft | 361 kts | 152° |
| 2026-04-23 16:55 | 59.53249 | 18.59558 | 7685 ft | 367 kts | 152° |
| 2026-04-23 16:55 | 59.50964 | 18.61889 | 8378 ft | 372 kts | 152° |
| 2026-04-23 16:55 | 59.48648 | 18.64248 | 9051 ft | 378 kts | 151° |
| 2026-04-23 16:55 | 59.46294 | 18.66632 | 9718 ft | 383 kts | 153° |
| 2026-04-23 16:56 | 59.43771 | 18.68444 | 10322 ft | 389 kts | 167° |
| 2026-04-23 16:56 | 59.41082 | 18.69120 | 10936 ft | 391 kts | 181° |
| 2026-04-23 16:56 | 59.38418 | 18.68632 | 11604 ft | 390 kts | 194° |
| 2026-04-23 16:56 | 59.35790 | 18.67245 | 12231 ft | 392 kts | 199° |
| 2026-04-23 16:57 | 59.33147 | 18.65769 | 12844 ft | 396 kts | 198° |
| 2026-04-23 16:57 | 59.30476 | 18.64288 | 13454 ft | 400 kts | 198° |
| 2026-04-23 16:57 | 59.27802 | 18.62815 | 14021 ft | 405 kts | 197° |
| 2026-04-23 16:57 | 59.25032 | 18.61688 | 14557 ft | 409 kts | 187° |
| 2026-04-23 16:58 | 59.22175 | 18.61228 | 15114 ft | 413 kts | 185° |
| 2026-04-23 16:58 | 59.19296 | 18.60791 | 15674 ft | 416 kts | 185° |
| 2026-04-23 16:58 | 59.16397 | 18.60341 | 16224 ft | 418 kts | 185° |
| 2026-04-23 16:58 | 59.13484 | 18.59885 | 16783 ft | 421 kts | 185° |
| 2026-04-23 16:59 | 59.10548 | 18.59425 | 17343 ft | 424 kts | 184° |
| 2026-04-23 16:59 | 59.07628 | 18.58965 | 17876 ft | 426 kts | 184° |
| 2026-04-23 16:59 | 59.04658 | 18.58495 | 18405 ft | 429 kts | 184° |
| 2026-04-23 16:59 | 59.01669 | 18.58021 | 18867 ft | 431 kts | 184° |
| 2026-04-23 17:00 | 58.98667 | 18.57548 | 19325 ft | 433 kts | 184° |
| 2026-04-23 17:00 | 58.95653 | 18.57072 | 19769 ft | 436 kts | 185° |
| 2026-04-23 17:00 | 58.92687 | 18.56115 | 20184 ft | 438 kts | 195° |
| 2026-04-23 17:00 | 58.89787 | 18.54252 | 20597 ft | 439 kts | 204° |
| 2026-04-23 17:01 | 58.86937 | 18.52013 | 21032 ft | 442 kts | 204° |
| 2026-04-23 17:01 | 58.84083 | 18.49767 | 21471 ft | 444 kts | 204° |
| 2026-04-23 17:01 | 58.81239 | 18.47532 | 21906 ft | 447 kts | 204° |
| 2026-04-23 17:01 | 58.78346 | 18.45265 | 22337 ft | 450 kts | 204° |
| 2026-04-23 17:02 | 58.75432 | 18.42991 | 22756 ft | 452 kts | 204° |
| 2026-04-23 17:02 | 58.72502 | 18.40712 | 23163 ft | 455 kts | 204° |
| 2026-04-23 17:02 | 58.69557 | 18.38431 | 23561 ft | 458 kts | 204° |
| 2026-04-23 17:02 | 58.66586 | 18.36135 | 23895 ft | 461 kts | 204° |
| 2026-04-23 17:03 | 58.63593 | 18.33824 | 24225 ft | 463 kts | 204° |
| 2026-04-23 17:03 | 58.60630 | 18.31536 | 24548 ft | 466 kts | 204° |
| 2026-04-23 17:03 | 58.57605 | 18.29205 | 24867 ft | 469 kts | 204° |
| 2026-04-23 17:03 | 58.54570 | 18.26871 | 25193 ft | 471 kts | 203° |
| 2026-04-23 17:04 | 58.51517 | 18.24530 | 25511 ft | 474 kts | 203° |
| 2026-04-23 17:04 | 58.48441 | 18.22171 | 25832 ft | 476 kts | 203° |
| 2026-04-23 17:04 | 58.45357 | 18.19811 | 26146 ft | 479 kts | 203° |
| 2026-04-23 17:04 | 58.42249 | 18.17444 | 26452 ft | 481 kts | 203° |
| 2026-04-23 17:05 | 58.39136 | 18.15080 | 26760 ft | 484 kts | 203° |
| 2026-04-23 17:05 | 58.36027 | 18.12725 | 27055 ft | 486 kts | 203° |
| 2026-04-23 17:05 | 58.32878 | 18.10344 | 27364 ft | 488 kts | 203° |
| 2026-04-23 17:05 | 58.29712 | 18.07953 | 27665 ft | 490 kts | 203° |
| 2026-04-23 17:06 | 58.26535 | 18.05550 | 27965 ft | 493 kts | 203° |
| 2026-04-23 17:06 | 58.23343 | 18.03142 | 28260 ft | 495 kts | 202° |
| 2026-04-23 17:06 | 58.20106 | 18.00814 | 28545 ft | 497 kts | 198° |
| 2026-04-23 17:06 | 58.16735 | 17.99223 | 28818 ft | 499 kts | 190° |
| 2026-04-23 17:07 | 58.13342 | 17.98047 | 29088 ft | 501 kts | 190° |
| 2026-04-23 17:07 | 58.09900 | 17.96851 | 29363 ft | 503 kts | 190° |
| 2026-04-23 17:07 | 58.06438 | 17.95642 | 29636 ft | 505 kts | 190° |
| 2026-04-23 17:07 | 58.02973 | 17.94426 | 29912 ft | 507 kts | 190° |
| 2026-04-23 17:08 | 57.99524 | 17.93213 | 30177 ft | 509 kts | 190° |
| 2026-04-23 17:08 | 57.96049 | 17.91996 | 30491 ft | 508 kts | 190° |
| 2026-04-23 17:08 | 57.92566 | 17.90781 | 30828 ft | 507 kts | 190° |
| 2026-04-23 17:08 | 57.89102 | 17.89578 | 31168 ft | 506 kts | 189° |
| 2026-04-23 17:09 | 57.85630 | 17.88380 | 31508 ft | 505 kts | 189° |
| 2026-04-23 17:09 | 57.82171 | 17.87190 | 31851 ft | 505 kts | 189° |
| 2026-04-23 17:09 | 57.78719 | 17.86003 | 32184 ft | 504 kts | 189° |
| 2026-04-23 17:09 | 57.75274 | 17.84819 | 32514 ft | 503 kts | 189° |
| 2026-04-23 17:10 | 57.71832 | 17.83638 | 32858 ft | 502 kts | 189° |
| 2026-04-23 17:10 | 57.68396 | 17.82461 | 33196 ft | 502 kts | 189° |
| 2026-04-23 17:10 | 57.64965 | 17.81281 | 33542 ft | 501 kts | 189° |
| 2026-04-23 17:10 | 57.61539 | 17.80108 | 33869 ft | 500 kts | 189° |
| 2026-04-23 17:11 | 57.58114 | 17.78941 | 34032 ft | 499 kts | 189° |
| 2026-04-23 17:11 | 57.54714 | 17.77788 | 34059 ft | 495 kts | 189° |
| 2026-04-23 17:11 | 57.47964 | 17.75492 | 34058 ft | 492 kts | 189° |
| 2026-04-23 17:12 | 57.41228 | 17.73208 | 34063 ft | 492 kts | 189° |
| 2026-04-23 17:12 | 57.34498 | 17.70935 | 34064 ft | 492 kts | 189° |
| 2026-04-23 17:13 | 57.27760 | 17.68672 | 34069 ft | 492 kts | 188° |
| 2026-04-23 17:13 | 57.21025 | 17.66426 | 34066 ft | 492 kts | 188° |
| 2026-04-23 17:14 | 57.14287 | 17.64185 | 34070 ft | 492 kts | 188° |
| 2026-04-23 17:14 | 57.07600 | 17.61960 | 34068 ft | 492 kts | 188° |
| 2026-04-23 17:15 | 57.00862 | 17.59731 | 34068 ft | 492 kts | 188° |
| 2026-04-23 17:15 | 56.94126 | 17.57516 | 34073 ft | 492 kts | 188° |
| 2026-04-23 17:16 | 56.87395 | 17.55316 | 34077 ft | 491 kts | 188° |
| 2026-04-23 17:16 | 56.80670 | 17.53119 | 34079 ft | 491 kts | 188° |
| 2026-04-23 17:17 | 56.73943 | 17.50924 | 34080 ft | 491 kts | 188° |
| 2026-04-23 17:17 | 56.67223 | 17.48739 | 34083 ft | 490 kts | 188° |
| 2026-04-23 17:18 | 56.57156 | 17.45482 | 34087 ft | 490 kts | 188° |
| 2026-04-23 17:19 | 56.50450 | 17.43314 | 34085 ft | 489 kts | 188° |
| 2026-04-23 17:19 | 56.43749 | 17.41154 | 34083 ft | 489 kts | 188° |
| 2026-04-23 17:20 | 56.37040 | 17.39028 | 34084 ft | 489 kts | 188° |
| 2026-04-23 17:21 | 56.23626 | 17.34778 | 34079 ft | 490 kts | 188° |
| 2026-04-23 17:21 | 56.13558 | 17.31609 | 34071 ft | 490 kts | 186° |
| 2026-04-23 17:22 | 56.10178 | 17.31348 | 34073 ft | 484 kts | 171° |
| 2026-04-23 17:22 | 56.03619 | 17.33619 | 34070 ft | 480 kts | 163° |
| 2026-04-23 17:23 | 55.93812 | 17.37429 | 34070 ft | 481 kts | 163° |
| 2026-04-23 17:24 | 55.83976 | 17.41219 | 34076 ft | 483 kts | 163° |
| 2026-04-23 17:24 | 55.74166 | 17.44970 | 34076 ft | 483 kts | 163° |
| 2026-04-23 17:25 | 55.64289 | 17.48726 | 34080 ft | 484 kts | 163° |
| 2026-04-23 17:26 | 55.51098 | 17.53704 | 34081 ft | 485 kts | 164° |
| 2026-04-23 17:27 | 55.41189 | 17.57427 | 34084 ft | 486 kts | 163° |
| 2026-04-23 17:27 | 55.34577 | 17.59898 | 34082 ft | 486 kts | 164° |
| 2026-04-23 17:28 | 55.27957 | 17.62365 | 34084 ft | 486 kts | 163° |
| 2026-04-23 17:28 | 55.21330 | 17.64833 | 34088 ft | 487 kts | 164° |
| 2026-04-23 17:29 | 55.14722 | 17.67269 | 34089 ft | 487 kts | 164° |
| 2026-04-23 17:30 | 55.05880 | 17.70535 | 34088 ft | 488 kts | 164° |
| 2026-04-23 17:30 | 54.94835 | 17.74555 | 34101 ft | 487 kts | 169° |
| 2026-04-23 17:31 | 54.88119 | 17.76911 | 34104 ft | 498 kts | 167° |
| 2026-04-23 17:31 | 54.81290 | 17.79475 | 34103 ft | 511 kts | 167° |
| 2026-04-23 17:32 | 54.74271 | 17.82091 | 34104 ft | 517 kts | 167° |
| 2026-04-23 17:32 | 54.67211 | 17.84642 | 34106 ft | 518 kts | 167° |
| 2026-04-23 17:33 | 54.60138 | 17.87174 | 34105 ft | 518 kts | 167° |
| 2026-04-23 17:33 | 54.53120 | 17.89686 | 34100 ft | 518 kts | 167° |
| 2026-04-23 17:34 | 54.46047 | 17.92212 | 34095 ft | 518 kts | 167° |
| 2026-04-23 17:35 | 54.35449 | 17.95983 | 34094 ft | 518 kts | 167° |
| 2026-04-23 17:35 | 54.24897 | 17.99716 | 34088 ft | 518 kts | 167° |
| 2026-04-23 17:36 | 54.17844 | 18.02216 | 34090 ft | 518 kts | 167° |
| 2026-04-23 17:36 | 54.10779 | 18.04704 | 34094 ft | 517 kts | 167° |
| 2026-04-23 17:37 | 54.03763 | 18.07150 | 34088 ft | 517 kts | 167° |
| 2026-04-23 17:38 | 53.93163 | 18.10839 | 34089 ft | 517 kts | 167° |
| 2026-04-23 17:38 | 53.86098 | 18.13294 | 34092 ft | 517 kts | 167° |
| 2026-04-23 17:39 | 53.79088 | 18.15727 | 34093 ft | 517 kts | 167° |
| 2026-04-23 17:39 | 53.72031 | 18.18160 | 34088 ft | 517 kts | 167° |
| 2026-04-23 17:40 | 53.64972 | 18.20586 | 34083 ft | 517 kts | 167° |
| 2026-04-23 17:40 | 53.57910 | 18.23001 | 34083 ft | 517 kts | 167° |
| 2026-04-23 17:41 | 53.50891 | 18.25392 | 34077 ft | 517 kts | 167° |
| 2026-04-23 17:41 | 53.41497 | 18.28578 | 34085 ft | 517 kts | 167° |
| 2026-04-23 17:42 | 53.30896 | 18.32164 | 34075 ft | 517 kts | 167° |
| 2026-04-23 17:43 | 53.23840 | 18.34539 | 34066 ft | 516 kts | 167° |
| 2026-04-23 17:43 | 53.16837 | 18.36890 | 34057 ft | 516 kts | 167° |
| 2026-04-23 17:44 | 53.09790 | 18.39254 | 34065 ft | 516 kts | 167° |
| 2026-04-23 17:44 | 52.99208 | 18.42772 | 34060 ft | 516 kts | 167° |
| 2026-04-23 17:45 | 52.88635 | 18.46288 | 34060 ft | 516 kts | 167° |
| 2026-04-23 17:46 | 52.78097 | 18.49771 | 34063 ft | 516 kts | 167° |
| 2026-04-23 17:46 | 52.71045 | 18.52077 | 34056 ft | 516 kts | 167° |
| 2026-04-23 17:47 | 52.64037 | 18.54369 | 34057 ft | 515 kts | 167° |
| 2026-04-23 17:48 | 52.53472 | 18.57824 | 34052 ft | 515 kts | 167° |
| 2026-04-23 17:48 | 52.46423 | 18.60115 | 34048 ft | 515 kts | 167° |
| 2026-04-23 17:49 | 52.39433 | 18.62382 | 34049 ft | 515 kts | 167° |
| 2026-04-23 17:49 | 52.32388 | 18.64653 | 34049 ft | 515 kts | 166° |
| 2026-04-23 17:50 | 52.25346 | 18.66917 | 34046 ft | 515 kts | 166° |
| 2026-04-23 17:50 | 52.14834 | 18.70272 | 34047 ft | 514 kts | 166° |
| 2026-04-23 17:51 | 52.07799 | 18.72511 | 34041 ft | 514 kts | 166° |
| 2026-04-23 17:52 | 51.97294 | 18.75858 | 34043 ft | 514 kts | 166° |
| 2026-04-23 17:52 | 51.86750 | 18.79193 | 34041 ft | 513 kts | 166° |
| 2026-04-23 17:53 | 51.76266 | 18.82486 | 34041 ft | 513 kts | 166° |
| 2026-04-23 17:54 | 51.69263 | 18.84685 | 34043 ft | 513 kts | 166° |
| 2026-04-23 17:54 | 51.58777 | 18.87966 | 34045 ft | 512 kts | 166° |
| 2026-04-23 17:55 | 51.48269 | 18.91230 | 34045 ft | 512 kts | 166° |
| 2026-04-23 17:56 | 51.41267 | 18.93398 | 34044 ft | 511 kts | 166° |
| 2026-04-23 17:56 | 51.30822 | 18.96612 | 34044 ft | 511 kts | 166° |
| 2026-04-23 17:57 | 51.23830 | 18.98772 | 34043 ft | 511 kts | 166° |
| 2026-04-23 17:58 | 51.13355 | 19.01973 | 34048 ft | 510 kts | 166° |
| 2026-04-23 17:58 | 51.06383 | 19.04099 | 34048 ft | 510 kts | 166° |
| 2026-04-23 17:59 | 50.99450 | 19.06210 | 34049 ft | 509 kts | 166° |
| 2026-04-23 17:59 | 50.92487 | 19.08318 | 34050 ft | 509 kts | 166° |
| 2026-04-23 18:00 | 50.85523 | 19.10422 | 34053 ft | 508 kts | 166° |
| 2026-04-23 18:00 | 50.78567 | 19.12514 | 34049 ft | 508 kts | 165° |
| 2026-04-23 18:01 | 50.71663 | 19.14596 | 34053 ft | 507 kts | 165° |
| 2026-04-23 18:01 | 50.64724 | 19.16673 | 34060 ft | 507 kts | 166° |
| 2026-04-23 18:02 | 50.57785 | 19.18742 | 34066 ft | 506 kts | 166° |
| 2026-04-23 18:02 | 50.50904 | 19.20782 | 34065 ft | 506 kts | 165° |
| 2026-04-23 18:03 | 50.43989 | 19.22835 | 34065 ft | 505 kts | 165° |
| 2026-04-23 18:03 | 50.37073 | 19.24885 | 34061 ft | 504 kts | 165° |
| 2026-04-23 18:04 | 50.30180 | 19.26918 | 34056 ft | 504 kts | 165° |
| 2026-04-23 18:04 | 50.23333 | 19.28933 | 34058 ft | 503 kts | 165° |
| 2026-04-23 18:05 | 50.16454 | 19.30949 | 34053 ft | 502 kts | 165° |
| 2026-04-23 18:05 | 50.09575 | 19.32956 | 34058 ft | 502 kts | 165° |
| 2026-04-23 18:06 | 50.02716 | 19.34958 | 34051 ft | 501 kts | 165° |
| 2026-04-23 18:06 | 49.95865 | 19.36947 | 34053 ft | 500 kts | 165° |
| 2026-04-23 18:07 | 49.89066 | 19.38908 | 34057 ft | 499 kts | 165° |
| 2026-04-23 18:07 | 49.82221 | 19.40883 | 34057 ft | 498 kts | 165° |
| 2026-04-23 18:08 | 49.76581 | 19.42514 | 34055 ft | 497 kts | 165° |
| 2026-04-23 18:08 | 49.68632 | 19.44803 | 34059 ft | 496 kts | 165° |
| 2026-04-23 18:09 | 49.61878 | 19.46743 | 34061 ft | 495 kts | 165° |
| 2026-04-23 18:09 | 49.55054 | 19.48375 | 34052 ft | 496 kts | 169° |
| 2026-04-23 18:10 | 49.48216 | 19.49569 | 34050 ft | 497 kts | 170° |
| 2026-04-23 18:10 | 49.41341 | 19.50747 | 34051 ft | 496 kts | 169° |
| 2026-04-23 18:11 | 49.34469 | 19.52057 | 34056 ft | 495 kts | 168° |
| 2026-04-23 18:11 | 49.27671 | 19.53401 | 34051 ft | 494 kts | 168° |
| 2026-04-23 18:12 | 49.20839 | 19.54721 | 34044 ft | 494 kts | 168° |
| 2026-04-23 18:12 | 49.14014 | 19.56008 | 34044 ft | 494 kts | 169° |
| 2026-04-23 18:13 | 49.07235 | 19.57288 | 34039 ft | 494 kts | 168° |
| 2026-04-23 18:13 | 49.00411 | 19.58588 | 34023 ft | 494 kts | 168° |
| 2026-04-23 18:14 | 48.93577 | 19.59883 | 34021 ft | 494 kts | 168° |
| 2026-04-23 18:14 | 48.86739 | 19.61163 | 34002 ft | 494 kts | 168° |
| 2026-04-23 18:15 | 48.79945 | 19.62434 | 34003 ft | 494 kts | 168° |
| 2026-04-23 18:15 | 48.73095 | 19.63711 | 33996 ft | 494 kts | 168° |
| 2026-04-23 18:16 | 48.66291 | 19.64985 | 33994 ft | 494 kts | 168° |
| 2026-04-23 18:16 | 48.59450 | 19.66262 | 33993 ft | 494 kts | 168° |
| 2026-04-23 18:17 | 48.49273 | 19.68157 | 34000 ft | 492 kts | 168° |
| 2026-04-23 18:17 | 48.42467 | 19.69408 | 34005 ft | 491 kts | 168° |
| 2026-04-23 18:18 | 48.35673 | 19.70658 | 34010 ft | 490 kts | 168° |
| 2026-04-23 18:18 | 48.28962 | 19.71888 | 34006 ft | 488 kts | 168° |
| 2026-04-23 18:19 | 48.22222 | 19.73134 | 34001 ft | 487 kts | 168° |
| 2026-04-23 18:19 | 48.15477 | 19.74378 | 34005 ft | 486 kts | 168° |
| 2026-04-23 18:20 | 48.08803 | 19.75598 | 33999 ft | 485 kts | 168° |
| 2026-04-23 18:20 | 48.02082 | 19.76813 | 33997 ft | 485 kts | 168° |
| 2026-04-23 18:21 | 47.95382 | 19.78026 | 33996 ft | 484 kts | 168° |
| 2026-04-23 18:21 | 47.88692 | 19.79238 | 33996 ft | 483 kts | 168° |
| 2026-04-23 18:22 | 47.82014 | 19.80442 | 33993 ft | 483 kts | 168° |
| 2026-04-23 18:22 | 47.75388 | 19.81641 | 33995 ft | 482 kts | 168° |
| 2026-04-23 18:23 | 47.65396 | 19.83454 | 33997 ft | 481 kts | 168° |
| 2026-04-23 18:24 | 47.55458 | 19.85229 | 33998 ft | 480 kts | 168° |
| 2026-04-23 18:25 | 47.45501 | 19.86988 | 34004 ft | 479 kts | 168° |
| 2026-04-23 18:25 | 47.38910 | 19.88163 | 34005 ft | 478 kts | 168° |
| 2026-04-23 18:26 | 47.32301 | 19.89339 | 34000 ft | 478 kts | 169° |
| 2026-04-23 18:26 | 47.25698 | 19.90513 | 33987 ft | 477 kts | 169° |
| 2026-04-23 18:27 | 47.19139 | 19.91672 | 33993 ft | 476 kts | 169° |
| 2026-04-23 18:27 | 47.12542 | 19.92824 | 33982 ft | 476 kts | 169° |
| 2026-04-23 18:28 | 47.05956 | 19.93974 | 34002 ft | 476 kts | 169° |
| 2026-04-23 18:28 | 47.00483 | 19.94936 | 33999 ft | 476 kts | 169° |
| 2026-04-23 18:29 | 46.93964 | 19.96083 | 33997 ft | 475 kts | 169° |
| 2026-04-23 18:29 | 46.87395 | 19.97229 | 33998 ft | 475 kts | 169° |
| 2026-04-23 18:30 | 46.80809 | 19.98370 | 33995 ft | 475 kts | 169° |
| 2026-04-23 18:30 | 46.74237 | 19.99491 | 33992 ft | 475 kts | 170° |
| 2026-04-23 18:31 | 46.67696 | 20.00625 | 33990 ft | 475 kts | 170° |
| 2026-04-23 18:31 | 46.61129 | 20.01761 | 33993 ft | 475 kts | 170° |
| 2026-04-23 18:32 | 46.54599 | 20.02878 | 33996 ft | 475 kts | 171° |
| 2026-04-23 18:32 | 46.48026 | 20.03999 | 33993 ft | 475 kts | 171° |
| 2026-04-23 18:33 | 46.41456 | 20.05136 | 33995 ft | 475 kts | 171° |
| 2026-04-23 18:33 | 46.34919 | 20.06269 | 33994 ft | 474 kts | 171° |
| 2026-04-23 18:34 | 46.28341 | 20.07392 | 34001 ft | 474 kts | 171° |
| 2026-04-23 18:34 | 46.21782 | 20.08497 | 34000 ft | 474 kts | 171° |
| 2026-04-23 18:35 | 46.15223 | 20.09234 | 33997 ft | 476 kts | 181° |
| 2026-04-23 18:35 | 46.08612 | 20.08466 | 33999 ft | 476 kts | 184° |
| 2026-04-23 18:36 | 46.02006 | 20.07649 | 34000 ft | 476 kts | 184° |
| 2026-04-23 18:36 | 45.95443 | 20.06848 | 34005 ft | 475 kts | 184° |
| 2026-04-23 18:37 | 45.88846 | 20.06042 | 34004 ft | 475 kts | 184° |
| 2026-04-23 18:37 | 45.82257 | 20.05235 | 34010 ft | 474 kts | 184° |
| 2026-04-23 18:38 | 45.75674 | 20.04441 | 34016 ft | 474 kts | 184° |
| 2026-04-23 18:38 | 45.69130 | 20.03932 | 34016 ft | 473 kts | 180° |
| 2026-04-23 18:39 | 45.62542 | 20.03789 | 34019 ft | 473 kts | 179° |
| 2026-04-23 18:39 | 45.55964 | 20.03669 | 34019 ft | 473 kts | 180° |
| 2026-04-23 18:40 | 45.49382 | 20.03453 | 34017 ft | 472 kts | 180° |
| 2026-04-23 18:40 | 45.42842 | 20.03182 | 34020 ft | 472 kts | 180° |
| 2026-04-23 18:41 | 45.36265 | 20.02919 | 34027 ft | 472 kts | 180° |
| 2026-04-23 18:41 | 45.29685 | 20.02674 | 34027 ft | 472 kts | 180° |
| 2026-04-23 18:42 | 45.23154 | 20.02439 | 34030 ft | 472 kts | 180° |
| 2026-04-23 18:42 | 45.16580 | 20.02200 | 34034 ft | 472 kts | 180° |
| 2026-04-23 18:43 | 45.09997 | 20.01956 | 34038 ft | 472 kts | 180° |
| 2026-04-23 18:43 | 45.03538 | 20.01716 | 34040 ft | 472 kts | 180° |
| 2026-04-23 18:44 | 44.97012 | 20.01481 | 34041 ft | 472 kts | 180° |
| 2026-04-23 18:44 | 44.90483 | 20.01241 | 34043 ft | 472 kts | 180° |
| 2026-04-23 18:45 | 44.83913 | 20.01002 | 34044 ft | 472 kts | 180° |
| 2026-04-23 18:45 | 44.77378 | 20.00766 | 34046 ft | 472 kts | 180° |
| 2026-04-23 18:46 | 44.70810 | 20.00530 | 34043 ft | 471 kts | 180° |
| 2026-04-23 18:46 | 44.64235 | 20.00289 | 34045 ft | 471 kts | 180° |
| 2026-04-23 18:47 | 44.57711 | 20.00054 | 34049 ft | 471 kts | 180° |
| 2026-04-23 18:47 | 44.51154 | 19.99828 | 34049 ft | 470 kts | 179° |
| 2026-04-23 18:48 | 44.44640 | 19.99596 | 34057 ft | 470 kts | 180° |
| 2026-04-23 18:48 | 44.38091 | 19.99353 | 34063 ft | 470 kts | 179° |
| 2026-04-23 18:49 | 44.31547 | 19.99115 | 34073 ft | 469 kts | 179° |
| 2026-04-23 18:49 | 44.25058 | 19.98879 | 34071 ft | 469 kts | 179° |
| 2026-04-23 18:50 | 44.19596 | 19.98687 | 34073 ft | 468 kts | 179° |
| 2026-04-23 18:50 | 44.12016 | 19.98423 | 34079 ft | 468 kts | 179° |
| 2026-04-23 18:51 | 44.05545 | 19.98197 | 34079 ft | 467 kts | 179° |
| 2026-04-23 18:51 | 43.99031 | 19.97966 | 34082 ft | 467 kts | 179° |
| 2026-04-23 18:52 | 43.92526 | 19.97733 | 34092 ft | 467 kts | 179° |
| 2026-04-23 18:52 | 43.86070 | 19.97511 | 34092 ft | 466 kts | 179° |
| 2026-04-23 18:53 | 43.79578 | 19.97284 | 34099 ft | 466 kts | 179° |
| 2026-04-23 18:53 | 43.73093 | 19.97049 | 34104 ft | 465 kts | 179° |
| 2026-04-23 18:54 | 43.66665 | 19.96823 | 34110 ft | 465 kts | 179° |
| 2026-04-23 18:54 | 43.60199 | 19.96599 | 34113 ft | 464 kts | 179° |
| 2026-04-23 18:55 | 43.53740 | 19.96379 | 34114 ft | 463 kts | 179° |
| 2026-04-23 18:55 | 43.47284 | 19.96159 | 34121 ft | 463 kts | 179° |
| 2026-04-23 18:56 | 43.41922 | 19.95974 | 34124 ft | 463 kts | 179° |
| 2026-04-23 18:56 | 43.34445 | 19.95711 | 34123 ft | 462 kts | 178° |
| 2026-04-23 18:57 | 43.28014 | 19.95482 | 34126 ft | 461 kts | 179° |
| 2026-04-23 18:57 | 43.21585 | 19.95248 | 34127 ft | 461 kts | 178° |
| 2026-04-23 18:58 | 43.15218 | 19.95040 | 34129 ft | 460 kts | 178° |
| 2026-04-23 18:58 | 43.08809 | 19.94826 | 34123 ft | 460 kts | 178° |
| 2026-04-23 18:59 | 43.02409 | 19.94606 | 34128 ft | 459 kts | 178° |
| 2026-04-23 18:59 | 42.96009 | 19.94395 | 34130 ft | 459 kts | 178° |
| 2026-04-23 19:00 | 42.89658 | 19.94185 | 34128 ft | 458 kts | 178° |
| 2026-04-23 19:00 | 42.83273 | 19.93967 | 34112 ft | 458 kts | 178° |
| 2026-04-23 19:01 | 42.76896 | 19.93741 | 34084 ft | 458 kts | 178° |
| 2026-04-23 19:01 | 42.70557 | 19.93533 | 34093 ft | 458 kts | 178° |
| 2026-04-23 19:02 | 42.65221 | 19.93354 | 34097 ft | 457 kts | 178° |
| 2026-04-23 19:02 | 42.57813 | 19.93104 | 34093 ft | 457 kts | 178° |
| 2026-04-23 19:03 | 42.51441 | 19.92888 | 34089 ft | 457 kts | 178° |
| 2026-04-23 19:03 | 42.45116 | 19.92668 | 34085 ft | 457 kts | 178° |
| 2026-04-23 19:04 | 42.38753 | 19.92446 | 34080 ft | 457 kts | 178° |
| 2026-04-23 19:04 | 42.32396 | 19.92236 | 34073 ft | 456 kts | 178° |
| 2026-04-23 19:05 | 42.26077 | 19.92029 | 34066 ft | 456 kts | 178° |
| 2026-04-23 19:05 | 42.19736 | 19.91827 | 34062 ft | 456 kts | 177° |
| 2026-04-23 19:06 | 42.13381 | 19.91618 | 34059 ft | 456 kts | 178° |
| 2026-04-23 19:06 | 42.07026 | 19.91406 | 34052 ft | 456 kts | 178° |
| 2026-04-23 19:07 | 42.00713 | 19.91195 | 34056 ft | 456 kts | 178° |
| 2026-04-23 19:07 | 41.94350 | 19.90976 | 34052 ft | 455 kts | 178° |
| 2026-04-23 19:08 | 41.88043 | 19.90767 | 34044 ft | 455 kts | 177° |
| 2026-04-23 19:08 | 41.81701 | 19.90555 | 34055 ft | 455 kts | 177° |
| 2026-04-23 19:09 | 41.75353 | 19.90349 | 34053 ft | 455 kts | 177° |
| 2026-04-23 19:09 | 41.69054 | 19.90145 | 34058 ft | 455 kts | 177° |
| 2026-04-23 19:10 | 41.62723 | 19.89942 | 34054 ft | 455 kts | 177° |
| 2026-04-23 19:10 | 41.56394 | 19.89734 | 34058 ft | 455 kts | 177° |
| 2026-04-23 19:11 | 41.50093 | 19.89528 | 34056 ft | 454 kts | 177° |
| 2026-04-23 19:11 | 41.43756 | 19.89326 | 34054 ft | 455 kts | 176° |
| 2026-04-23 19:12 | 41.38485 | 19.89160 | 34051 ft | 455 kts | 176° |
| 2026-04-23 19:12 | 41.31115 | 19.88923 | 34050 ft | 455 kts | 176° |
| 2026-04-23 19:13 | 41.24817 | 19.88714 | 34050 ft | 455 kts | 176° |
| 2026-04-23 19:13 | 41.18467 | 19.88511 | 34040 ft | 455 kts | 176° |
| 2026-04-23 19:14 | 41.12148 | 19.88308 | 34038 ft | 456 kts | 176° |
| 2026-04-23 19:14 | 41.05791 | 19.88106 | 34029 ft | 456 kts | 176° |
| 2026-04-23 19:15 | 40.99447 | 19.87908 | 34024 ft | 456 kts | 176° |
| 2026-04-23 19:15 | 40.93085 | 19.87710 | 34023 ft | 457 kts | 176° |
| 2026-04-23 19:16 | 40.86747 | 19.87499 | 34022 ft | 457 kts | 176° |
| 2026-04-23 19:16 | 40.81441 | 19.87330 | 34016 ft | 458 kts | 176° |
| 2026-04-23 19:17 | 40.71867 | 19.87032 | 34019 ft | 459 kts | 176° |
| 2026-04-23 19:17 | 40.65459 | 19.86822 | 34022 ft | 460 kts | 176° |
| 2026-04-23 19:18 | 40.59086 | 19.86609 | 34023 ft | 460 kts | 176° |
| 2026-04-23 19:18 | 40.52669 | 19.86405 | 34020 ft | 461 kts | 176° |
| 2026-04-23 19:19 | 40.43035 | 19.86116 | 33737 ft | 462 kts | 176° |
| 2026-04-23 19:20 | 40.36601 | 19.85910 | 33195 ft | 462 kts | 176° |
| 2026-04-23 19:20 | 40.33386 | 19.85803 | 32932 ft | 462 kts | 176° |
| 2026-04-23 19:20 | 40.30170 | 19.85698 | 32658 ft | 462 kts | 176° |
| 2026-04-23 19:20 | 40.26956 | 19.85596 | 32393 ft | 460 kts | 176° |
| 2026-04-23 19:21 | 40.23766 | 19.85498 | 32133 ft | 457 kts | 176° |
| 2026-04-23 19:21 | 40.17442 | 19.85304 | 31326 ft | 451 kts | 175° |
| 2026-04-23 19:21 | 40.14318 | 19.85205 | 30864 ft | 446 kts | 175° |
| 2026-04-23 19:22 | 40.11260 | 19.85103 | 30757 ft | 433 kts | 174° |
| 2026-04-23 19:22 | 40.08389 | 19.85415 | 30663 ft | 408 kts | 160° |
| 2026-04-23 19:22 | 40.03285 | 19.87829 | 30485 ft | 387 kts | 150° |
| 2026-04-23 19:23 | 39.98753 | 19.90237 | 30337 ft | 389 kts | 150° |
| 2026-04-23 19:24 | 39.91480 | 19.94100 | 29724 ft | 387 kts | 149° |
| 2026-04-23 19:24 | 39.88990 | 19.95442 | 29192 ft | 391 kts | 149° |
| 2026-04-23 19:24 | 39.83886 | 19.98217 | 28141 ft | 401 kts | 150° |
| 2026-04-23 19:25 | 39.78739 | 20.00952 | 27120 ft | 397 kts | 150° |
| 2026-04-23 19:25 | 39.73666 | 20.03597 | 26364 ft | 388 kts | 151° |
| 2026-04-23 19:26 | 39.68704 | 20.06174 | 25473 ft | 380 kts | 151° |
| 2026-04-23 19:26 | 39.66258 | 20.07443 | 25037 ft | 376 kts | 151° |
| 2026-04-23 19:27 | 39.61436 | 20.09949 | 24207 ft | 370 kts | 151° |
| 2026-04-23 19:27 | 39.54370 | 20.13624 | 22895 ft | 361 kts | 151° |
| 2026-04-23 19:28 | 39.49748 | 20.16023 | 22071 ft | 353 kts | 152° |
| 2026-04-23 19:28 | 39.45241 | 20.18355 | 21231 ft | 347 kts | 153° |
| 2026-04-23 19:29 | 39.43005 | 20.19514 | 20811 ft | 345 kts | 153° |
| 2026-04-23 19:29 | 39.38565 | 20.21827 | 19960 ft | 342 kts | 154° |
| 2026-04-23 19:30 | 39.34164 | 20.24118 | 19134 ft | 339 kts | 155° |
| 2026-04-23 19:30 | 39.31970 | 20.25254 | 18718 ft | 338 kts | 156° |
| 2026-04-23 19:30 | 39.27621 | 20.27493 | 17856 ft | 337 kts | 157° |
| 2026-04-23 19:31 | 39.25450 | 20.28604 | 17445 ft | 334 kts | 157° |
| 2026-04-23 19:31 | 39.23347 | 20.29852 | 17047 ft | 331 kts | 148° |
| 2026-04-23 19:31 | 39.21486 | 20.31565 | 16657 ft | 326 kts | 136° |
| 2026-04-23 19:31 | 39.19954 | 20.33647 | 16274 ft | 323 kts | 127° |
| 2026-04-23 19:32 | 39.18542 | 20.35889 | 15886 ft | 321 kts | 127° |
| 2026-04-23 19:32 | 39.17129 | 20.38111 | 15502 ft | 319 kts | 128° |
| 2026-04-23 19:32 | 39.15712 | 20.40325 | 15113 ft | 318 kts | 128° |
| 2026-04-23 19:32 | 39.14305 | 20.42517 | 14731 ft | 317 kts | 128° |
| 2026-04-23 19:33 | 39.12896 | 20.44705 | 14349 ft | 316 kts | 129° |
| 2026-04-23 19:33 | 39.11510 | 20.46862 | 13966 ft | 316 kts | 129° |
| 2026-04-23 19:33 | 39.08711 | 20.51224 | 13147 ft | 314 kts | 129° |
| 2026-04-23 19:34 | 39.07321 | 20.53389 | 12751 ft | 312 kts | 129° |
| 2026-04-23 19:34 | 39.05960 | 20.55509 | 12366 ft | 310 kts | 128° |
| 2026-04-23 19:34 | 39.03215 | 20.59772 | 11570 ft | 307 kts | 128° |
| 2026-04-23 19:35 | 39.01851 | 20.61886 | 11171 ft | 306 kts | 128° |
| 2026-04-23 19:35 | 39.00508 | 20.63964 | 10781 ft | 305 kts | 128° |
| 2026-04-23 19:35 | 38.99153 | 20.66064 | 10376 ft | 303 kts | 128° |
| 2026-04-23 19:35 | 38.97815 | 20.68127 | 10140 ft | 296 kts | 128° |
| 2026-04-23 19:36 | 38.96505 | 20.70144 | 9899 ft | 290 kts | 128° |
| 2026-04-23 19:36 | 38.95227 | 20.72147 | 9760 ft | 287 kts | 124° |
| 2026-04-23 19:36 | 38.94435 | 20.74421 | 9482 ft | 281 kts | 98° |
| 2026-04-23 19:36 | 38.94508 | 20.76885 | 9118 ft | 276 kts | 72° |
| 2026-04-23 19:37 | 38.95403 | 20.79036 | 8691 ft | 272 kts | 47° |
| 2026-04-23 19:37 | 38.96826 | 20.80633 | 8316 ft | 271 kts | 38° |
| 2026-04-23 19:37 | 38.98297 | 20.82145 | 7933 ft | 270 kts | 39° |
| 2026-04-23 19:37 | 38.99746 | 20.83641 | 7553 ft | 269 kts | 39° |
| 2026-04-23 19:38 | 39.01195 | 20.85143 | 7286 ft | 263 kts | 39° |
| 2026-04-23 19:38 | 39.02587 | 20.86590 | 7153 ft | 252 kts | 39° |
| 2026-04-23 19:38 | 39.03913 | 20.87970 | 7017 ft | 238 kts | 39° |
| 2026-04-23 19:38 | 39.05090 | 20.89465 | 6496 ft | 240 kts | 55° |
| 2026-04-23 19:39 | 39.05772 | 20.91447 | 5868 ft | 245 kts | 77° |
| 2026-04-23 19:39 | 39.05821 | 20.93588 | 5395 ft | 238 kts | 98° |
| 2026-04-23 19:39 | 39.05287 | 20.95530 | 4996 ft | 231 kts | 118° |
| 2026-04-23 19:39 | 39.04267 | 20.97080 | 4622 ft | 226 kts | 139° |
| 2026-04-23 19:40 | 39.02968 | 20.98180 | 4263 ft | 220 kts | 150° |
| 2026-04-23 19:40 | 39.01514 | 20.98621 | 3886 ft | 213 kts | 179° |
| 2026-04-23 19:40 | 39.00112 | 20.98147 | 3572 ft | 207 kts | 207° |
| 2026-04-23 19:40 | 38.99068 | 20.96942 | 3272 ft | 200 kts | 234° |
| 2026-04-23 19:41 | 38.98502 | 20.95344 | 2994 ft | 193 kts | 249° |
| 2026-04-23 19:41 | 38.98027 | 20.93784 | 2743 ft | 182 kts | 248° |
| 2026-04-23 19:41 | 38.97569 | 20.92305 | 2465 ft | 174 kts | 248° |
| 2026-04-23 19:41 | 38.97136 | 20.90901 | 2227 ft | 162 kts | 248° |
| 2026-04-23 19:42 | 38.96734 | 20.89593 | 2003 ft | 154 kts | 248° |
| 2026-04-23 19:42 | 38.96347 | 20.88342 | 1807 ft | 151 kts | 248° |
| 2026-04-23 19:42 | 38.95961 | 20.87094 | 1613 ft | 150 kts | 248° |
| 2026-04-23 19:42 | 38.95578 | 20.85855 | 1426 ft | 149 kts | 248° |
| 2026-04-23 19:43 | 38.95198 | 20.84623 | 1221 ft | 148 kts | 247° |
| 2026-04-23 19:43 | 38.94802 | 20.83407 | 1029 ft | 147 kts | 244° |
| 2026-04-23 19:43 | 38.94390 | 20.82207 | 837 ft | 147 kts | 247° |
| 2026-04-23 19:43 | 38.93995 | 20.81001 | 642 ft | 146 kts | 246° |
| 2026-04-23 19:44 | 38.93603 | 20.79799 | 463 ft | 145 kts | 245° |
| 2026-04-23 19:44 | 38.93217 | 20.78595 | 236 ft | 146 kts | 246° |
| 2026-04-23 19:44 | 38.92841 | 20.77395 | 26 ft | 141 kts | 247° |
| 2026-04-23 19:44 | 38.92521 | 20.76383 | 22 ft | 94 kts | 248° |
| 2026-04-23 19:45 | 38.92339 | 20.75805 | 20 ft | 52 kts | 248° |
| 2026-04-23 19:45 | 38.92223 | 20.75437 | 21 ft | 21 kts | 247° |
| 2026-04-23 19:45 | 38.92147 | 20.75403 | 23 ft | 11 kts | 164° |
| 2026-04-23 19:45 | 38.92141 | 20.75406 | 22 ft | 0 kts | 161° |
| 2026-04-23 19:46 | 38.92132 | 20.75410 | 21 ft | 5 kts | 161° |
| 2026-04-23 19:46 | 38.92098 | 20.75461 | 21 ft | 12 kts | 98° |
| 2026-04-23 19:46 | 38.92130 | 20.75596 | 22 ft | 20 kts | 68° |
| 2026-04-23 19:46 | 38.92187 | 20.75777 | 21 ft | 22 kts | 68° |
| 2026-04-23 19:47 | 38.92225 | 20.75901 | 19 ft | 23 kts | 69° |
| 2026-04-23 19:47 | 38.92303 | 20.76149 | 19 ft | 23 kts | 69° |
| 2026-04-23 19:47 | 38.92364 | 20.76340 | 18 ft | 23 kts | 67° |
| 2026-04-23 19:47 | 38.92424 | 20.76530 | 18 ft | 23 kts | 68° |
| 2026-04-23 19:48 | 38.92483 | 20.76718 | 19 ft | 22 kts | 68° |
| 2026-04-23 19:48 | 38.92538 | 20.76900 | 19 ft | 22 kts | 68° |
| 2026-04-23 19:48 | 38.92596 | 20.77078 | 19 ft | 17 kts | 68° |
| 2026-04-23 19:48 | 38.92628 | 20.77155 | 18 ft | 6 kts | 39° |
| 2026-04-23 19:49 | 38.92669 | 20.77157 | 18 ft | 6 kts | 347° |
| 2026-04-23 19:49 | 38.92743 | 20.77139 | 17 ft | 14 kts | 11° |
| 2026-04-23 19:49 | 38.92808 | 20.77223 | 17 ft | 13 kts | 24° |
| 2026-04-23 19:49 | 38.92873 | 20.77211 | 18 ft | 7 kts | 341° |
| 2026-04-23 19:50 | 38.92889 | 20.77204 | 18 ft | 0 kts | 341° |
| 2026-04-23 19:50 | 38.92894 | 20.77204 | 18 ft | 4 kts | 351° |
| 2026-04-23 19:50 | 38.92952 | 20.77215 | 19 ft | 9 kts | 10° |
| 2026-04-23 19:50 | 38.92996 | 20.77203 | 19 ft | 3 kts | 339° |
| 2026-04-23 19:51 | 38.92999 | 20.77202 | 19 ft | 0 kts | 339° |